Suitland, Maryland
Current Conditions -  °F | °C
As of 5:58 PM on Tuesday 27 Jan 2015 (Local Time) from KADW Reporting Station
Broken Clouds Broken Clouds  
Wind Chill: 19°   Ceiling: 11000
Heat Index: 31°   Visibility: 10mi
Dew Point: 22°   Wind: 18mph
Humidity: 69%   Direction: 310°NW
Pressure: 29.83"   Gusts: NA
Location:  38.85°N, 76.92°W
Report Text: KADW 272258Z AUTO 31016KT 10SM BKN110 00/M05 A2983 RMK AO2 PK WND 32027/52 SLP111 T10051055 $
Loading
Personal Weather Stations






























Interactive Weather Map New forecast layout! Learn more

10-Day Weather Forecast

Advertisements
Track Severe Weather on mobile